Time;durP1;ratioP1;P1;durP2;ratioP2;P2;SDS_P1;SDS_P2;PMS_P1;PMS_P2;Temp;Humidity;BMP_temperature;BMP_pressure;BME280_temperature;BME280_humidity;BME280_pressure;Samples;Min_cycle;Max_cycle;Signal;HPM_P1;HPM_P2
2022/11/11 00:00:16;;;;;;;10.48;5.60;;;;;;;8.75;100.00;102110.28;685567;28;1120;-71
2022/11/11 00:01:06;;;;;;;10.88;6.10;;;;;;;8.73;100.00;102105.03;685969;28;4320;-70
2022/11/11 00:01:45;;;;;;;10.40;5.63;;;;;;;8.76;100.00;102104.22;687165;28;988;-71
2022/11/11 00:02:24;;;;;;;8.40;5.50;;;;;;;8.76;100.00;102105.09;687669;28;1084;-70
2022/11/11 00:03:04;;;;;;;8.80;5.50;;;;;;;8.80;100.00;102106.94;688150;28;1196;-70
2022/11/11 00:03:43;;;;;;;10.38;5.50;;;;;;;8.80;100.00;102104.34;686457;28;4362;-72
2022/11/11 00:04:22;;;;;;;10.35;5.47;;;;;;;8.75;100.00;102105.06;686453;28;890;-72
2022/11/11 00:05:01;;;;;;;10.45;5.38;;;;;;;8.72;100.00;102107.59;687544;28;1029;-72
2022/11/11 00:05:40;;;;;;;10.95;5.95;;;;;;;8.65;100.00;102111.75;686521;28;1075;-70
2022/11/11 00:06:19;;;;;;;11.02;5.78;;;;;;;8.66;100.00;102113.53;686895;28;1048;-70
2022/11/11 00:06:58;;;;;;;9.13;5.35;;;;;;;8.65;100.00;102112.66;686761;28;4327;-71
2022/11/11 00:07:37;;;;;;;9.73;5.40;;;;;;;8.60;100.00;102114.25;687319;28;1139;-70
2022/11/11 00:08:17;;;;;;;9.82;5.78;;;;;;;8.59;100.00;102115.09;685425;28;1087;-72
2022/11/11 00:08:56;;;;;;;10.38;5.47;;;;;;;8.76;100.00;102110.31;686393;28;1227;-71
2022/11/11 00:09:35;;;;;;;10.35;5.78;;;;;;;8.75;100.00;102112.88;688055;28;1364;-71
2022/11/11 00:10:17;;;;;;;9.38;5.60;;;;;;;8.87;100.00;102110.59;686870;28;5045;-70
2022/11/11 00:11:04;;;;;;;9.20;5.60;;;;;;;8.79;100.00;102114.72;687420;28;1064;-69
2022/11/11 00:11:43;;;;;;;9.38;5.50;;;;;;;8.67;100.00;102110.97;687495;28;1037;-69
2022/11/11 00:12:22;;;;;;;9.27;5.65;;;;;;;8.64;100.00;102115.19;686954;28;1057;-71
2022/11/11 00:13:04;;;;;;;10.18;5.70;;;;;;;8.77;100.00;102112.09;685524;28;4981;-70
2022/11/11 00:13:43;;;;;;;8.63;5.50;;;;;;;8.87;100.00;102110.59;686707;28;1034;-71
2022/11/11 00:14:22;;;;;;;10.40;5.88;;;;;;;8.81;100.00;102116.53;687185;28;1048;-69
2022/11/11 00:15:01;;;;;;;9.95;5.72;;;;;;;8.77;100.00;102112.09;686031;28;1409;-71
2022/11/11 00:15:40;;;;;;;11.48;5.72;;;;;;;8.80;100.00;102112.16;687794;28;1222;-67
2022/11/11 00:16:20;;;;;;;9.65;5.47;;;;;;;8.75;100.00;102116.41;686363;28;5259;-70
2022/11/11 00:25:25;;;;;;;8.80;5.20;;;;;;;8.77;100.00;102114.69;686115;28;4980;-71
2022/11/11 00:26:04;;;;;;;9.95;5.25;;;;;;;8.71;100.00;102111.03;688101;28;1117;-70
2022/11/11 00:26:43;;;;;;;8.75;5.32;;;;;;;8.72;100.00;102113.69;687161;28;1063;-71
2022/11/11 00:27:22;;;;;;;8.98;5.55;;;;;;;8.64;100.00;102117.81;686713;28;1088;-72
2022/11/11 00:28:00;;;;;;;8.95;5.80;;;;;;;8.59;100.00;102109.00;687404;28;4976;-70
2022/11/11 00:28:40;;;;;;;8.73;5.53;;;;;;;8.56;100.00;102121.97;687151;28;1052;-71
2022/11/11 00:29:19;;;;;;;9.60;5.43;;;;;;;8.59;100.00;102122.03;687293;28;1073;-69
2022/11/11 00:29:58;;;;;;;11.10;5.80;;;;;;;8.64;100.00;102120.41;686830;28;1147;-70
2022/11/11 00:30:37;;;;;;;9.73;5.72;;;;;;;8.56;100.00;102130.66;687260;28;1381;-71
2022/11/11 00:31:16;;;;;;;9.48;5.55;;;;;;;8.47;100.00;102131.31;686938;28;5151;-70
2022/11/11 00:32:54;;;;;;;9.48;5.65;;;;;;;8.57;100.00;102139.34;685244;28;1392;-70
2022/11/11 00:33:33;;;;;;;10.10;5.55;;;;;;;8.57;100.00;102144.56;684145;28;1191;-70
2022/11/11 00:34:12;;;;;;;8.55;5.35;;;;;;;8.62;100.00;102142.97;687127;28;4976;-70
2022/11/11 00:35:53;;;;;;;8.55;5.40;;;;;;;8.59;100.00;102150.72;687291;28;1037;-72
2022/11/11 00:36:32;;;;;;;9.90;5.78;;;;;;;8.59;100.00;102148.09;687045;28;1076;-71
2022/11/11 00:37:11;;;;;;;9.32;5.53;;;;;;;8.60;100.00;102152.47;687188;28;5020;-71
2022/11/11 00:37:50;;;;;;;8.98;5.32;;;;;;;8.60;100.00;102148.16;687027;28;1244;-71
2022/11/11 00:38:44;;;;;;;10.63;5.45;;;;;;;8.58;100.00;102151.53;687881;28;1100;-71
2022/11/11 00:39:23;;;;;;;10.02;5.63;;;;;;;8.52;100.00;102142.72;687230;28;1084;-71
2022/11/11 00:40:03;;;;;;;9.27;5.60;;;;;;;8.51;100.00;102147.88;687306;28;4962;-71
2022/11/11 00:40:42;;;;;;;11.60;5.55;;;;;;;8.51;100.00;102150.50;687305;28;1080;-72
2022/11/11 00:41:23;;;;;;;9.30;5.43;;;;;;;8.50;100.00;102147.00;687611;28;1041;-71
2022/11/11 00:42:02;;;;;;;9.25;5.60;;;;;;;8.54;100.00;102149.69;686615;28;1065;-71
2022/11/11 00:42:41;;;;;;;9.02;5.38;;;;;;;8.48;100.00;102150.41;686973;28;4395;-71
2022/11/11 00:43:19;;;;;;;9.77;5.18;;;;;;;8.46;100.00;102149.47;687663;28;1033;-72
2022/11/11 00:43:58;;;;;;;10.57;5.53;;;;;;;8.46;100.00;102149.47;686304;28;3690;-71
2022/11/11 00:44:37;;;;;;;9.35;5.40;;;;;;;8.47;100.00;102144.34;687087;28;1026;-72
2022/11/11 00:45:16;;;;;;;9.75;5.57;;;;;;;8.46;100.00;102147.78;687457;28;1265;-71
2022/11/11 00:50:57;;;;;;;8.35;5.50;;;;;;;8.61;100.00;102138.59;687196;28;4289;-70
2022/11/11 00:51:00;;;;;;;8.52;5.13;;;;;;;8.46;100.00;102131.22;687318;28;1206;-71
2022/11/11 00:51:40;;;;;;;10.82;5.60;;;;;;;8.41;100.00;102132.81;686951;28;994;-71
2022/11/11 00:52:18;;;;;;;10.02;5.45;;;;;;;8.44;100.00;102131.16;686985;28;4982;-70
2022/11/11 00:52:57;;;;;;;7.75;5.10;;;;;;;8.44;100.00;102133.75;686967;28;1390;-71
2022/11/11 00:53:37;;;;;;;9.68;5.03;;;;;;;8.47;100.00;102127.78;687509;28;1044;-71
2022/11/11 00:54:17;;;;;;;9.63;5.40;;;;;;;8.50;100.00;102133.09;686844;28;1315;-73
2022/11/11 00:54:56;;;;;;;8.38;5.40;;;;;;;8.47;100.00;102128.69;687351;28;4300;-71
2022/11/11 00:55:34;;;;;;;8.98;5.53;;;;;;;8.42;100.00;102137.16;687621;28;1271;-70
2022/11/11 00:56:13;;;;;;;9.73;5.20;;;;;;;8.45;100.00;102130.34;687472;28;1196;-70
2022/11/11 00:56:52;;;;;;;10.32;5.95;;;;;;;8.40;100.00;102131.91;687564;28;1124;-71
2022/11/11 00:57:31;;;;;;;9.10;5.20;;;;;;;8.51;100.00;102127.94;687861;28;1064;-71
2022/11/11 00:58:10;;;;;;;7.45;5.22;;;;;;;8.47;100.00;102125.19;687330;28;4987;-72
2022/11/11 00:58:50;;;;;;;9.55;5.78;;;;;;;8.60;100.00;102129.00;687590;28;1287;-70
2022/11/11 00:59:29;;;;;;;9.50;5.25;;;;;;;8.58;100.00;102136.78;687576;28;1060;-72
2022/11/11 01:00:09;;;;;;;8.95;5.63;;;;;;;8.62;100.00;102133.41;687473;28;1080;-70
2022/11/11 01:00:52;;;;;;;9.38;5.07;;;;;;;8.73;100.00;102136.31;686403;28;4423;-71
2022/11/11 01:01:35;;;;;;;8.80;5.00;;;;;;;8.59;100.00;102140.28;687737;28;1284;-70
2022/11/11 01:02:14;;;;;;;8.50;5.50;;;;;;;8.65;100.00;102143.94;687480;28;1161;-70
2022/11/11 01:02:53;;;;;;;8.95;5.30;;;;;;;8.58;100.00;102144.59;687414;28;1314;-71
2022/11/11 01:03:32;;;;;;;10.57;5.32;;;;;;;8.58;100.00;102147.22;687763;28;1134;-70
2022/11/11 01:04:11;;;;;;;9.10;5.28;;;;;;;8.54;100.00;102144.47;686839;28;4974;-70
2022/11/11 01:04:50;;;;;;;8.60;5.60;;;;;;;8.50;100.00;102139.19;687614;28;1241;-71
2022/11/11 01:05:29;;;;;;;7.18;4.95;;;;;;;8.45;100.00;102146.00;687692;28;965;-70
2022/11/11 01:06:10;;;;;;;9.57;5.40;;;;;;;8.41;100.00;102149.31;685950;28;1097;-70
2022/11/11 01:06:49;;;;;;;8.65;5.18;;;;;;;8.58;100.00;102141.13;685947;28;4546;-70
2022/11/11 01:07:28;;;;;;;8.93;5.40;;;;;;;8.51;100.00;102146.19;688661;28;1120;-71
2022/11/11 01:08:07;;;;;;;11.57;5.53;;;;;;;8.57;100.00;102145.47;687582;28;1322;-71
2022/11/11 01:08:46;;;;;;;9.43;5.65;;;;;;;8.57;100.00;102148.06;687484;28;1060;-70
2022/11/11 01:09:25;;;;;;;9.10;5.30;;;;;;;8.45;100.00;102145.13;687313;28;1076;-71
2022/11/11 01:10:05;;;;;;;7.68;5.07;;;;;;;8.42;100.00;102145.88;686917;28;4986;-70
2022/11/11 01:10:45;;;;;;;8.27;5.63;;;;;;;8.38;100.00;102148.34;687602;28;1060;-71
2022/11/11 01:11:24;;;;;;;8.60;5.25;;;;;;;8.37;100.00;102147.47;687269;28;970;-71
2022/11/11 01:12:03;;;;;;;9.98;5.38;;;;;;;8.39;100.00;102145.81;687837;28;1001;-72
2022/11/11 01:12:42;;;;;;;8.63;5.20;;;;;;;8.43;100.00;102147.66;687058;28;4339;-70
2022/11/11 01:13:32;;;;;;;9.07;5.65;;;;;;;8.40;100.00;102147.56;688078;28;1073;-71
2022/11/11 01:14:11;;;;;;;12.05;5.40;;;;;;;8.40;100.00;102151.88;688517;28;1014;-72
2022/11/11 01:14:50;;;;;;;7.97;5.10;;;;;;;8.42;100.00;102153.72;688491;28;1136;-71
2022/11/11 01:15:32;;;;;;;8.45;4.90;;;;;;;8.37;100.00;102151.81;686776;28;1177;-70
2022/11/11 01:16:23;;;;;;;8.25;4.90;;;;;;;8.35;100.00;102155.25;686582;28;4972;-70
2022/11/11 01:17:03;;;;;;;8.80;4.88;;;;;;;8.33;100.00;102150.84;687452;28;1053;-71
2022/11/11 01:17:42;;;;;;;8.00;5.10;;;;;;;8.28;100.00;102155.91;687506;28;1180;-71
2022/11/11 01:18:24;;;;;;;9.02;5.28;;;;;;;8.30;100.00;102155.97;686779;28;1211;-70
2022/11/11 01:19:03;;;;;;;10.52;5.00;;;;;;;8.30;100.00;102148.16;687361;28;4962;-71
2022/11/11 01:19:42;;;;;;;8.50;5.15;;;;;;;8.25;100.00;102152.34;687407;28;1068;-71
2022/11/11 01:20:21;;;;;;;9.75;5.20;;;;;;;8.26;100.00;102151.50;687365;28;1068;-71
2022/11/11 01:21:02;;;;;;;8.55;5.30;;;;;;;8.21;100.00;102156.59;686946;28;1127;-71
2022/11/11 01:21:41;;;;;;;9.60;5.22;;;;;;;8.25;100.00;102154.94;686760;28;4506;-70
2022/11/11 01:22:20;;;;;;;9.63;5.57;;;;;;;8.24;100.00;102160.97;687317;28;1140;-72
2022/11/11 01:23:09;;;;;;;9.32;5.25;;;;;;;8.24;100.00;102155.75;687767;28;1136;-70
2022/11/11 01:23:50;;;;;;;9.43;5.15;;;;;;;8.21;100.00;102151.38;687317;28;1095;-72
2022/11/11 01:24:29;;;;;;;10.32;5.45;;;;;;;8.20;100.00;102157.41;687746;28;1048;-71
2022/11/11 01:25:08;;;;;;;9.50;5.50;;;;;;;8.19;100.00;102158.25;686776;28;4945;-71
2022/11/11 01:25:48;;;;;;;9.57;5.55;;;;;;;8.17;100.00;102154.72;687121;28;1143;-72
2022/11/11 01:26:27;;;;;;;9.00;5.40;;;;;;;8.28;100.00;102155.00;687006;28;1008;-70
2022/11/11 01:27:07;;;;;;;9.38;5.20;;;;;;;8.24;100.00;102158.38;686863;28;1021;-70
2022/11/11 01:27:46;;;;;;;9.70;5.28;;;;;;;8.24;100.00;102158.38;686582;28;4327;-70
2022/11/11 01:28:24;;;;;;;9.35;5.57;;;;;;;8.28;100.00;102152.41;687022;28;1131;-70
2022/11/11 01:29:04;;;;;;;9.68;5.63;;;;;;;8.26;100.00;102159.31;687806;28;1060;-70
2022/11/11 01:29:43;;;;;;;8.75;5.15;;;;;;;8.26;100.00;102154.09;686900;28;1049;-70
2022/11/11 01:30:22;;;;;;;9.55;5.10;;;;;;;8.26;100.00;102154.09;687227;28;1127;-71
2022/11/11 01:31:07;;;;;;;8.80;5.43;;;;;;;8.22;100.00;102154.84;684991;28;4990;-71
2022/11/11 01:31:46;;;;;;;8.23;5.45;;;;;;;8.22;100.00;102158.34;685911;28;1028;-70
2022/11/11 01:32:25;;;;;;;9.90;5.47;;;;;;;8.25;100.00;102163.66;687175;28;1025;-71
2022/11/11 01:33:04;;;;;;;9.38;5.43;;;;;;;8.30;100.00;102153.34;686583;28;1269;-70
2022/11/11 01:33:43;;;;;;;10.52;5.32;;;;;;;8.37;100.00;102152.69;686767;28;4349;-70
2022/11/11 01:34:22;;;;;;;9.80;5.53;;;;;;;8.57;100.00;102160.19;687385;28;1017;-69
2022/11/11 01:35:01;;;;;;;9.90;5.28;;;;;;;8.61;100.00;102152.53;686272;28;1040;-70
2022/11/11 01:35:40;;;;;;;8.25;5.20;;;;;;;8.51;100.00;102167.03;687456;28;1100;-70
2022/11/11 01:36:23;;;;;;;8.13;5.30;;;;;;;8.39;100.00;102156.22;685706;28;1000;-69
2022/11/11 01:37:02;;;;;;;7.97;5.05;;;;;;;8.35;100.00;102156.97;686917;28;5003;-70
2022/11/11 01:37:41;;;;;;;8.27;4.95;;;;;;;8.42;100.00;102158.91;687053;28;1135;-70
2022/11/11 01:38:20;;;;;;;8.35;5.13;;;;;;;8.42;100.00;102164.13;686843;28;1119;-70
2022/11/11 01:39:00;;;;;;;8.23;4.90;;;;;;;8.35;100.00;102170.00;687682;28;1112;-70
2022/11/11 01:39:39;;;;;;;8.55;5.00;;;;;;;8.30;100.00;102167.25;687349;28;949;-70
2022/11/11 01:40:18;;;;;;;10.78;5.14;;;;;;;8.29;100.00;102172.41;686288;28;5185;-71
2022/11/11 01:40:58;;;;;;;7.85;5.28;;;;;;;8.36;100.00;102176.97;687638;28;1078;-70
2022/11/11 01:41:37;;;;;;;8.60;4.95;;;;;;;8.38;100.00;102171.78;687717;28;1052;-70
2022/11/11 01:42:16;;;;;;;9.98;5.47;;;;;;;8.33;100.00;102171.66;687111;28;1065;-69
2022/11/11 01:43:04;;;;;;;10.13;5.15;;;;;;;8.31;100.00;102175.97;686016;28;4352;-70
2022/11/11 01:43:43;;;;;;;10.07;5.68;;;;;;;8.30;100.00;102175.06;689975;28;1130;-71
2022/11/11 01:44:45;;;;;;;7.93;5.00;;;;;;;8.26;100.00;102169.75;689683;28;1114;-70
2022/11/11 01:45:54;;;;;;;8.25;5.10;;;;;;;8.30;100.00;102171.59;686805;28;1053;-70
2022/11/11 01:46:38;;;;;;;9.60;5.20;;;;;;;8.29;100.00;102168.13;685623;28;4937;-71
2022/11/11 01:47:18;;;;;;;8.75;5.00;;;;;;;8.39;100.00;102168.34;686390;28;1202;-69
2022/11/11 01:49:18;;;;;;;9.05;4.90;;;;;;;8.30;100.00;102161.16;688160;28;1342;-69
2022/11/11 01:50:01;;;;;;;8.88;5.35;;;;;;;8.26;100.00;102165.41;687359;28;1227;-70
2022/11/11 01:50:40;;;;;;;8.30;4.68;;;;;;;8.23;100.00;102169.66;686645;28;1119;-71
2022/11/11 01:51:26;;;;;;;8.65;5.30;;;;;;;8.25;100.00;102167.97;686930;28;1136;-71
2022/11/11 01:52:26;;;;;;;10.75;5.22;;;;;;;8.21;100.00;102164.41;686799;28;4983;-71
2022/11/11 01:53:05;;;;;;;9.45;5.30;;;;;;;8.42;100.00;102160.63;687668;28;1287;-70
2022/11/11 01:53:51;;;;;;;10.00;5.13;;;;;;;8.40;100.00;102159.72;687567;28;1366;-71
2022/11/11 01:54:57;;;;;;;8.68;4.93;;;;;;;8.36;100.00;102163.94;686861;28;1208;-73
2022/11/11 01:55:36;;;;;;;7.97;5.13;;;;;;;8.31;100.00;102158.59;686293;28;5262;-69
2022/11/11 01:56:16;;;;;;;10.02;5.10;;;;;;;8.26;100.00;102161.91;686909;28;1100;-69
2022/11/11 01:57:01;;;;;;;9.40;5.45;;;;;;;8.26;100.00;102164.53;686857;28;1143;-70
2022/11/11 01:57:46;;;;;;;9.07;4.90;;;;;;;8.26;100.00;102165.41;690029;28;1135;-71
2022/11/11 01:58:25;;;;;;;8.60;4.97;;;;;;;8.31;100.00;102165.56;686894;28;1111;-70
2022/11/11 01:59:10;;;;;;;8.38;5.25;;;;;;;8.28;100.00;102163.75;683990;28;4936;-69
2022/11/11 01:59:59;;;;;;;9.48;4.97;;;;;;;8.29;100.00;102164.59;683987;28;1290;-72
2022/11/11 02:00:39;;;;;;;7.55;4.80;;;;;;;8.26;100.00;102175.81;686610;28;1156;-71
2022/11/11 02:01:18;;;;;;;8.70;5.15;;;;;;;8.23;100.00;102170.53;685586;28;6022;-70
2022/11/11 02:01:58;;;;;;;8.82;5.10;;;;;;;8.36;100.00;102171.75;687172;28;1119;-70
2022/11/11 02:02:38;;;;;;;10.27;5.45;;;;;;;8.35;100.00;102170.00;686787;28;1093;-70
2022/11/11 02:03:22;;;;;;;8.75;4.90;;;;;;;8.32;100.00;102169.91;686644;28;1063;-70
2022/11/11 02:06:01;;;;;;;8.00;4.90;;;;;;;8.31;100.00;102176.84;687277;28;1117;-71
2022/11/11 02:06:40;;;;;;;9.82;5.00;;;;;;;8.30;100.00;102171.59;686604;28;4331;-70
2022/11/11 02:07:21;;;;;;;7.78;4.80;;;;;;;8.40;100.00;102165.78;686939;28;1186;-69
2022/11/11 02:08:04;;;;;;;7.82;5.00;;;;;;;8.34;100.00;102173.44;686931;28;1103;-71
2022/11/11 02:08:44;;;;;;;8.77;5.00;;;;;;;8.30;100.00;102166.38;687483;28;1143;-70
2022/11/11 02:09:23;;;;;;;9.63;5.03;;;;;;;8.21;100.00;102176.53;686901;28;1259;-70
2022/11/11 02:10:06;;;;;;;8.30;4.93;;;;;;;8.21;100.00;102167.00;687080;28;4979;-71
2022/11/11 02:10:45;;;;;;;8.32;4.95;;;;;;;8.23;100.00;102172.25;687581;28;1169;-71
2022/11/11 02:14:35;;;;;;;8.93;4.90;;;;;;;8.19;100.00;102168.66;686615;28;1084;-70
2022/11/11 02:15:14;;;;;;;8.65;4.88;;;;;;;8.22;100.00;102160.06;687294;28;1394;-71
2022/11/11 02:15:53;;;;;;;8.77;5.10;;;;;;;8.32;100.00;102162.97;686326;28;4426;-68
2022/11/11 02:16:32;;;;;;;9.45;4.90;;;;;;;8.29;100.00;102162.00;686798;28;1219;-70
2022/11/11 02:17:14;;;;;;;9.48;5.00;;;;;;;8.34;100.00;102169.09;686983;28;1132;-72
2022/11/11 02:17:53;;;;;;;8.60;4.75;;;;;;;8.29;100.00;102157.69;686795;28;1265;-70
2022/11/11 02:18:32;;;;;;;8.32;4.90;;;;;;;8.22;100.00;102167.88;687524;28;1152;-69
2022/11/11 02:19:14;;;;;;;7.32;4.80;;;;;;;8.19;100.00;102164.34;686438;28;5164;-71
2022/11/11 02:19:56;;;;;;;8.60;5.15;;;;;;;8.21;100.00;102168.72;686364;28;1122;-72
2022/11/11 02:20:41;;;;;;;8.73;5.20;;;;;;;8.32;100.00;102162.97;687213;28;1599;-70
2022/11/11 02:21:27;;;;;;;11.13;5.30;;;;;;;8.29;100.00;102167.22;686326;28;1344;-70
2022/11/11 02:22:11;;;;;;;9.63;5.20;;;;;;;8.23;100.00;102167.94;686732;28;5000;-71
2022/11/11 02:22:53;;;;;;;10.35;5.30;;;;;;;8.23;100.00;102167.06;687527;28;1242;-70
2022/11/11 02:23:40;;;;;;;8.80;4.78;;;;;;;8.26;100.00;102159.31;687316;28;1255;-71
2022/11/11 02:24:22;;;;;;;7.75;4.90;;;;;;;8.19;100.00;102163.47;686689;28;1907;-69
2022/11/11 02:25:05;;;;;;;9.07;5.22;;;;;;;8.28;100.00;102162.84;686681;28;5000;-69
2022/11/11 02:25:48;;;;;;;8.93;4.80;;;;;;;8.27;100.00;102156.75;687467;28;1416;-71
2022/11/11 02:26:31;;;;;;;7.78;4.72;;;;;;;8.16;100.00;102156.44;686823;28;1104;-69
2022/11/11 02:27:14;;;;;;;7.78;4.60;;;;;;;8.13;100.00;102156.34;687149;28;1239;-70
2022/11/11 02:27:58;;;;;;;7.75;5.00;;;;;;;8.12;100.00;102165.00;686935;28;4320;-71
2022/11/11 02:28:38;;;;;;;7.85;4.80;;;;;;;8.05;100.00;102165.66;686774;28;1135;-70
2022/11/11 02:29:19;;;;;;;7.10;4.93;;;;;;;8.10;100.00;102163.19;687083;28;1138;-70
2022/11/11 02:30:00;;;;;;;8.50;4.95;;;;;;;8.10;100.00;102169.28;689891;28;1143;-70
2022/11/11 02:30:39;;;;;;;8.77;4.88;;;;;;;8.09;100.00;102169.25;687115;28;1217;-71
2022/11/11 02:31:18;;;;;;;7.45;4.70;;;;;;;8.04;100.00;102168.22;685693;28;4992;-70
2022/11/11 02:31:57;;;;;;;9.60;5.22;;;;;;;7.97;100.00;102165.41;687202;28;1206;-70
2022/11/11 02:32:36;;;;;;;9.55;4.82;;;;;;;7.99;100.00;102163.75;687291;28;1119;-69
2022/11/11 02:33:15;;;;;;;9.23;5.07;;;;;;;8.04;100.00;102163.88;687070;28;1166;-70
2022/11/11 02:33:54;;;;;;;9.05;5.13;;;;;;;8.06;100.00;102157.03;687086;28;4335;-70
2022/11/11 02:34:34;;;;;;;8.80;4.90;;;;;;;8.01;100.00;102158.59;688130;28;1351;-70
2022/11/11 02:35:23;;;;;;;9.38;5.20;;;;;;;7.98;100.00;102166.31;686831;28;1384;-69
2022/11/11 02:36:04;;;;;;;7.90;4.57;;;;;;;7.97;100.00;102161.94;686643;28;1261;-69
2022/11/11 02:36:44;;;;;;;9.82;5.10;;;;;;;7.94;100.00;102164.47;685739;28;4512;-70
2022/11/11 02:37:25;;;;;;;8.23;5.43;;;;;;;7.92;100.00;102155.69;686990;28;1100;-70
2022/11/11 02:38:12;;;;;;;9.13;5.10;;;;;;;7.89;100.00;102163.44;687288;28;1081;-71
2022/11/11 02:38:51;;;;;;;9.35;5.07;;;;;;;7.82;100.00;102163.25;686680;28;1124;-70
2022/11/11 02:39:32;;;;;;;7.45;4.57;;;;;;;7.77;100.00;102162.22;687209;28;1190;-70
2022/11/11 02:40:27;;;;;;;8.20;4.65;;;;;;;7.79;100.00;102162.28;686471;28;5193;-70
2022/11/11 02:42:09;;;;;;;7.95;4.57;;;;;;;7.86;100.00;102161.63;687198;28;1112;-69
2022/11/11 02:42:48;;;;;;;8.50;4.90;;;;;;;7.95;100.00;102168.84;686070;28;4335;-71
2022/11/11 02:43:27;;;;;;;8.32;5.00;;;;;;;8.07;100.00;102164.00;687126;28;1060;-69
2022/11/11 02:44:06;;;;;;;9.13;5.05;;;;;;;8.10;100.00;102168.38;687239;28;1981;-70
2022/11/11 02:44:45;;;;;;;7.88;4.68;;;;;;;7.99;100.00;102162.88;687140;28;1128;-70
2022/11/11 02:45:24;;;;;;;8.50;4.80;;;;;;;7.98;100.00;102163.72;686805;28;1057;-71
2022/11/11 02:46:05;;;;;;;9.50;5.18;;;;;;;7.91;100.00;102167.84;687001;28;5007;-69
2022/11/11 02:46:44;;;;;;;7.78;5.07;;;;;;;8.07;100.00;102168.31;686742;28;1128;-70
2022/11/11 02:47:23;;;;;;;8.70;5.00;;;;;;;8.08;100.00;102164.88;684348;28;1141;-71
2022/11/11 02:48:03;;;;;;;9.23;4.95;;;;;;;8.03;100.00;102162.16;684489;28;1184;-69
2022/11/11 02:48:42;;;;;;;9.27;4.93;;;;;;;8.01;100.00;102159.47;686293;28;4431;-70
2022/11/11 02:49:20;;;;;;;8.43;4.75;;;;;;;8.08;100.00;102159.66;687302;28;946;-69
2022/11/11 02:49:59;;;;;;;7.65;5.30;;;;;;;7.99;100.00;102161.16;687417;28;1164;-70
2022/11/11 02:50:38;;;;;;;7.38;4.88;;;;;;;7.97;100.00;102161.94;687054;28;1136;-69
2022/11/11 02:51:18;;;;;;;8.43;4.85;;;;;;;7.95;100.00;102155.81;686637;28;1064;-70
2022/11/11 02:51:56;;;;;;;9.10;5.40;;;;;;;7.96;100.00;102152.34;686149;28;4301;-71
2022/11/11 02:52:36;;;;;;;8.30;4.85;;;;;;;7.99;100.00;102149.88;687372;28;1187;-70
2022/11/11 02:53:15;;;;;;;8.70;4.93;;;;;;;8.00;100.00;102152.50;686844;28;1240;-71
2022/11/11 02:54:01;;;;;;;7.65;4.90;;;;;;;7.99;100.00;102158.56;687217;28;1298;-70
2022/11/11 02:54:42;;;;;;;9.23;5.13;;;;;;;7.98;100.00;102158.50;685921;28;4318;-70
2022/11/11 02:55:21;;;;;;;9.20;5.03;;;;;;;7.96;100.00;102154.97;686169;28;1214;-69
2022/11/11 02:56:00;;;;;;;9.50;4.97;;;;;;;7.94;100.00;102156.66;686669;28;1146;-71
2022/11/11 02:57:37;;;;;;;8.00;4.90;;;;;;;7.95;100.00;102148.00;686788;28;957;-71
2022/11/11 02:58:16;;;;;;;8.70;5.25;;;;;;;7.90;100.00;102152.19;686907;28;5006;-70
2022/11/11 02:58:55;;;;;;;7.47;4.63;;;;;;;7.90;100.00;102152.19;687119;28;5088;-71
2022/11/11 02:59:36;;;;;;;8.13;5.00;;;;;;;7.87;100.00;102144.28;686952;28;1243;-69
2022/11/11 03:00:16;;;;;;;7.72;4.78;;;;;;;7.90;100.00;102152.19;687080;28;1291;-71
2022/11/11 03:00:54;;;;;;;9.07;5.25;;;;;;;7.90;100.00;102145.25;686553;28;4318;-71
2022/11/11 03:01:33;;;;;;;8.27;5.07;;;;;;;7.98;100.00;102143.75;686832;28;1222;-71
2022/11/11 03:02:12;;;;;;;7.90;5.10;;;;;;;7.95;100.00;102153.22;686434;28;1314;-71
2022/11/11 03:02:51;;;;;;;7.28;4.53;;;;;;;7.96;100.00;102149.75;686897;28;1191;-70
2022/11/11 03:03:31;;;;;;;7.63;5.10;;;;;;;7.87;100.00;102146.91;686670;28;1262;-70
2022/11/11 03:04:09;;;;;;;8.38;4.90;;;;;;;7.86;100.00;102145.13;686575;28;5199;-71
2022/11/11 03:04:48;;;;;;;7.47;4.78;;;;;;;7.79;100.00;102142.31;687248;28;1139;-70
2022/11/11 03:05:27;;;;;;;9.13;5.10;;;;;;;7.75;100.00;102150.88;687036;28;1044;-70
2022/11/11 03:06:06;;;;;;;7.18;4.65;;;;;;;7.72;100.00;102150.78;687171;28;1131;-70
2022/11/11 03:06:45;;;;;;;8.23;4.97;;;;;;;7.70;100.00;102152.47;685587;28;4356;-70
2022/11/11 03:07:25;;;;;;;8.10;4.93;;;;;;;7.70;100.00;102157.66;687237;28;1182;-71
2022/11/11 03:08:04;;;;;;;9.90;5.32;;;;;;;7.67;100.00;102147.19;687266;28;1179;-69
2022/11/11 03:08:43;;;;;;;9.57;5.25;;;;;;;7.74;100.00;102154.34;687123;28;1056;-69
2022/11/11 03:09:22;;;;;;;8.63;4.82;;;;;;;7.57;100.00;102155.50;686748;28;1000;-70
2022/11/11 03:10:01;;;;;;;9.68;4.85;;;;;;;7.56;100.00;102156.34;686547;28;4978;-71
2022/11/11 03:10:40;;;;;;;8.10;4.70;;;;;;;7.64;100.00;102157.47;686861;28;1025;-72
2022/11/11 03:11:26;;;;;;;7.47;5.15;;;;;;;7.76;100.00;102155.25;687091;28;1049;-70
2022/11/11 03:12:05;;;;;;;7.07;4.60;;;;;;;7.82;100.00;102160.66;686496;28;1302;-70
2022/11/11 03:12:44;;;;;;;7.88;4.72;;;;;;;7.86;100.00;102159.00;686615;28;4331;-71
2022/11/11 03:13:23;;;;;;;7.63;5.03;;;;;;;7.87;100.00;102158.19;687626;28;1107;-70
2022/11/11 03:14:03;;;;;;;8.90;4.75;;;;;;;7.83;100.00;102158.94;688175;28;1076;-70
2022/11/11 03:14:42;;;;;;;8.45;5.07;;;;;;;7.80;100.00;102162.31;687225;28;1136;-70
2022/11/11 03:15:21;;;;;;;7.82;5.00;;;;;;;7.77;100.00;102162.22;686451;28;1142;-71
2022/11/11 03:16:00;;;;;;;9.82;4.95;;;;;;;7.82;100.00;102163.25;686624;28;5015;-71
2022/11/11 03:17:38;;;;;;;7.90;4.80;;;;;;;7.76;100.00;102155.25;686668;28;1199;-71
2022/11/11 03:18:16;;;;;;;8.95;5.00;;;;;;;7.82;100.00;102168.47;686340;28;1029;-70
2022/11/11 03:18:56;;;;;;;7.25;4.80;;;;;;;7.83;100.00;102159.78;686249;28;4310;-69
2022/11/11 03:19:34;;;;;;;7.82;4.97;;;;;;;7.88;100.00;102159.06;687254;28;1302;-71
2022/11/11 03:21:14;;;;;;;10.13;5.07;;;;;;;7.88;100.00;102161.66;686667;28;1215;-72
2022/11/11 03:21:54;;;;;;;9.18;4.93;;;;;;;7.92;100.00;102163.53;686624;28;4359;-71
2022/11/11 03:22:33;;;;;;;10.07;5.30;;;;;;;7.90;100.00;102154.78;687049;28;1195;-70
2022/11/11 03:23:14;;;;;;;8.10;4.97;;;;;;;7.84;100.00;102155.50;686775;28;1266;-70
2022/11/11 03:23:53;;;;;;;7.72;4.60;;;;;;;7.84;100.00;102158.97;687093;28;1131;-70
2022/11/11 03:25:37;;;;;;;7.63;4.78;;;;;;;7.78;100.00;102158.78;686986;28;4989;-71
2022/11/11 03:26:16;;;;;;;8.05;4.65;;;;;;;7.77;100.00;102154.41;687292;28;1143;-69
2022/11/11 03:26:55;;;;;;;7.00;4.63;;;;;;;7.78;100.00;102153.59;687008;28;1274;-71
2022/11/11 03:27:34;;;;;;;9.18;5.03;;;;;;;7.82;100.00;102152.84;687381;28;1255;-71
2022/11/11 03:28:18;;;;;;;7.75;4.72;;;;;;;8.06;100.00;102157.03;686599;28;5516;-69
2022/11/11 03:28:57;;;;;;;10.15;4.95;;;;;;;8.16;100.00;102158.16;687004;28;1206;-70
2022/11/11 03:29:36;;;;;;;8.32;4.78;;;;;;;8.11;100.00;102159.75;686826;28;1178;-71
2022/11/11 03:30:15;;;;;;;7.45;4.82;;;;;;;8.01;100.00;102158.59;686534;28;1278;-70
2022/11/11 03:30:54;;;;;;;8.93;4.85;;;;;;;7.94;100.00;102151.44;684706;28;8045;-71
2022/11/11 03:31:33;;;;;;;7.95;4.75;;;;;;;7.89;100.00;102153.00;688622;28;7694;-71
2022/11/11 03:32:12;;;;;;;7.82;4.85;;;;;;;7.87;100.00;102155.56;686848;28;1309;-71
2022/11/11 03:32:51;;;;;;;8.18;4.78;;;;;;;7.75;100.00;102153.47;686144;28;7697;-71
2022/11/11 03:33:30;;;;;;;7.45;4.72;;;;;;;7.75;100.00;102161.28;687216;28;1016;-71
2022/11/11 03:34:18;;;;;;;8.75;4.80;;;;;;;7.75;100.00;102161.28;686068;28;5024;-70
2022/11/11 03:34:57;;;;;;;8.05;4.80;;;;;;;7.72;100.00;102156.00;686758;28;7933;-70
2022/11/11 03:35:36;;;;;;;7.32;4.60;;;;;;;7.72;100.00;102155.13;685776;28;1480;-71
2022/11/11 03:36:15;;;;;;;8.23;4.85;;;;;;;7.62;100.00;102154.81;685530;28;1115;-71
2022/11/11 03:38:50;;;;;;;8.93;5.13;;;;;;;7.75;100.00;102158.69;687324;28;1180;-71
2022/11/11 03:39:30;;;;;;;7.70;4.53;;;;;;;7.71;100.00;102161.16;686935;28;1215;-72
2022/11/11 03:40:09;;;;;;;8.63;4.93;;;;;;;7.77;100.00;102166.56;685061;28;5168;-72
2022/11/11 03:40:51;;;;;;;8.45;4.88;;;;;;;7.78;100.00;102160.50;687319;28;1174;-71
2022/11/11 03:41:30;;;;;;;6.97;4.63;;;;;;;7.75;100.00;102157.81;687414;28;1223;-70